Arrow Post — CG2882 — position and weather

sailwx.info

Track history (hours):
 
Tides and Currents Weather Stations Pressure Air Temp Water Temp Dewpoint Dewpoint Depression Visibility Wind Speed Wind Dir Waves Ship Positions

Arrow Post

Last reported at 2015-Jan-13 15:30 UTC. Time now 2015-Jan-25 16:24 UTC.
Position N 51°32' W 127°56'.
Warning: this ship's position is 12 days out of date.

Length 29 m; draft 3.5 m.

Type: SAR. MMSI: 316001090.

Date/timePositionNaut miles runAvg speedWind from/ knotsBaromVisibWave heightAir tempDewpointWater temp
2015-Jan-13 15:30N 51°32' W 127°56'0 0.0
2015-Jan-13 14:06N 51°32' W 127°56'0 0.0
2015-Jan-13 13:06N 51°32' W 127°56'0 0.0
2015-Jan-13 12:12N 51°32' W 127°56'0 0.0
2015-Jan-13 10:18N 51°32' W 127°56'0 0.0
2015-Jan-13 08:12N 51°32' W 127°56'0 0.0
2015-Jan-13 07:30N 51°32' W 127°56'0 0.0
2015-Jan-13 06:30N 51°32' W 127°56'0 0.0
2015-Jan-13 05:12N 51°32' W 127°56'0 0.0
2015-Jan-13 04:18N 51°32' W 127°56'2 1.8
2015-Jan-13 03:25N 51°31' W 127°53'23 9.8
2015-Jan-13 01:06N 51°09' W 127°49'611.0
2015-Jan-13 00:33N 51°04' W 127°42'1110.7
2015-Jan-12 23:33N 50°57' W 127°29'1010.2
2015-Jan-12 22:33N 50°52' W 127°15'1010.5
2015-Jan-12 21:33N 50°46' W 127°02'1110.6
2015-Jan-12 20:31N 50°39' W 126°48'1211.1
2015-Jan-12 19:24N 50°30' W 126°34'113 4.4
2015-Jan-11 17:28N 49°22' W 124°14'9 9.8
2015-Jan-11 16:33N 49°17' W 124°02'9 8.7
2015-Jan-11 15:33N 49°10' W 123°55'1 0.6
2015-Jan-11 14:05N 49°10' W 123°56'0 0.0
2015-Jan-11 13:10N 49°10' W 123°56'0 0.0
2015-Jan-11 12:28N 49°10' W 123°56'0 0.0
2015-Jan-11 11:17N 49°10' W 123°56'0 0.0
2015-Jan-11 09:22N 49°10' W 123°56'0 0.0
2015-Jan-11 08:20N 49°10' W 123°56'0 0.0
2015-Jan-11 06:16N 49°10' W 123°56'0 0.0
2015-Jan-11 03:22N 49°10' W 123°56'0 0.0
2015-Jan-11 02:28N 49°10' W 123°56'0 0.0
2015-Jan-11 01:31N 49°10' W 123°56'6 6.0
2015-Jan-11 00:33N 49°12' W 123°48'5 4.8
2015-Jan-10 23:33N 49°10' W 123°41'7 6.6
2015-Jan-10 22:33N 49°05' W 123°36'8 7.7
2015-Jan-10 21:28N 48°56' W 123°37'8 8.5
2015-Jan-10 20:32N 48°49' W 123°34'7 6.9
2015-Jan-10 19:31N 48°42' W 123°30'1 0.7
2015-Jan-10 18:32N 48°41' W 123°30'2 1.8
2015-Jan-10 17:33N 48°40' W 123°30'2 1.2
2015-Jan-10 16:06N 48°39' W 123°27'0 0.0
2015-Jan-10 15:18N 48°39' W 123°27'0 0.0
2015-Jan-10 13:18N 48°39' W 123°27'0 0.0
2015-Jan-10 12:30N 48°39' W 123°27'0 0.0
2015-Jan-10 09:12N 48°39' W 123°27'0 0.0
2015-Jan-10 08:30N 48°39' W 123°27'0 0.0
2015-Jan-10 06:24N 48°39' W 123°27'0 0.0
2015-Jan-10 05:30N 48°39' W 123°27'0 0.0
2015-Jan-10 02:24N 48°39' W 123°27'0 0.0
2015-Jan-10 01:24N 48°39' W 123°27'0 0.0
2015-Jan-10 00:18N 48°39' W 123°27'0 0.0
2015-Jan-09 23:24N 48°39' W 123°27'0 0.0
2015-Jan-09 22:12N 48°39' W 123°27'0 0.0
2015-Jan-09 21:30N 48°39' W 123°27'0 0.0
2015-Jan-09 20:24N 48°39' W 123°27'0 0.0
2015-Jan-09 18:24N 48°39' W 123°27'0 0.0
2015-Jan-09 17:24N 48°39' W 123°27'0 0.0
2015-Jan-09 16:30N 48°39' W 123°27'0 0.0
2015-Jan-09 15:30N 48°39' W 123°27'0 0.0
2015-Jan-09 14:30N 48°39' W 123°27'0 0.0
2015-Jan-09 13:12N 48°39' W 123°27'0 0.0
2015-Jan-09 11:24N 48°39' W 123°27'0 0.0
2015-Jan-09 10:24N 48°39' W 123°27'0 0.0
2015-Jan-09 09:30N 48°39' W 123°27'0 0.0
2015-Jan-09 08:30N 48°39' W 123°27'0 0.0
2015-Jan-09 06:18N 48°39' W 123°27'0 0.0
2015-Jan-09 05:12N 48°39' W 123°27'0 0.0
2015-Jan-09 04:30N 48°39' W 123°27'0 0.0
2015-Jan-09 03:12N 48°39' W 123°27'0 0.0
2015-Jan-09 02:12N 48°39' W 123°27'0 0.0
2015-Jan-09 01:24N 48°39' W 123°27'0 0.0
2015-Jan-09 00:30N 48°39' W 123°27'0 0.0
2015-Jan-08 22:30N 48°39' W 123°27'0 0.0
2015-Jan-08 20:30N 48°39' W 123°27'0 0.0
2015-Jan-08 19:30N 48°39' W 123°27'0 0.0
2015-Jan-08 16:30N 48°39' W 123°27'0 0.0
2015-Jan-08 15:06N 48°39' W 123°27'0 0.0
2015-Jan-08 07:18N 48°39' W 123°27'0 0.0
2015-Jan-08 06:18N 48°39' W 123°27'0 0.0
2015-Jan-08 05:30N 48°39' W 123°27'0 0.0
2015-Jan-08 04:24N 48°39' W 123°27'0 0.0
2015-Jan-08 03:12N 48°39' W 123°27'0 0.0
2015-Jan-07 20:18N 48°39' W 123°27'0 0.0
2015-Jan-07 19:30N 48°39' W 123°27'0 0.0
2015-Jan-07 18:13N 48°39' W 123°27'0 0.0
2015-Jan-07 16:30N 48°39' W 123°27'0 0.0
2015-Jan-07 14:10N 48°39' W 123°27'0 0.0
2015-Jan-07 11:22N 48°39' W 123°27'0 0.0
2015-Jan-07 07:12N 48°39' W 123°27'0 0.0
2015-Jan-07 06:18N 48°39' W 123°27'0 0.0
2015-Jan-07 04:12N 48°39' W 123°27'0 0.0
2015-Jan-07 01:30N 48°39' W 123°27'0 0.0
2015-Jan-07 00:24N 48°39' W 123°27'0 0.0
2015-Jan-06 23:12N 48°39' W 123°27'0 0.0
2015-Jan-06 21:12N 48°39' W 123°27'0 0.0
2015-Jan-06 18:06N 48°39' W 123°27'0 0.0
2015-Jan-06 17:24N 48°39' W 123°27'0 0.0
2015-Jan-06 16:24N 48°39' W 123°27'0 0.0
2015-Jan-06 15:25N 48°39' W 123°27'0 0.0
2015-Jan-06 14:18N 48°39' W 123°27'0 0.0
2015-Jan-06 12:18N 48°39' W 123°27'0 0.0
2015-Jan-06 11:24N 48°39' W 123°27'0 0.0
2015-Jan-06 10:24N 48°39' W 123°27'0 0.0
2015-Jan-06 09:18N 48°39' W 123°27'0 0.0
2015-Jan-06 05:22N 48°39' W 123°27'0 0.0
2015-Jan-06 04:12N 48°39' W 123°27'0 0.0
2015-Jan-06 03:18N 48°39' W 123°27'0 0.0
2015-Jan-05 23:24N 48°39' W 123°27'0 0.0
2015-Jan-05 22:25N 48°39' W 123°27'0 0.0
2015-Jan-05 21:18N 48°39' W 123°27'0 0.0
2015-Jan-05 20:30N 48°39' W 123°27'0 0.0
2015-Jan-05 18:30N 48°39' W 123°27'0 0.0
2015-Jan-05 17:31N 48°39' W 123°27'0 0.0
2015-Jan-05 16:25N 48°39' W 123°27'0 0.0
2015-Jan-05 15:31N 48°39' W 123°27'0 0.0
2015-Jan-05 14:24N 48°39' W 123°27'0 0.0
2015-Jan-05 13:25N 48°39' W 123°27'0 0.0
2015-Jan-05 11:12N 48°39' W 123°27'0 0.0
2015-Jan-05 01:30N 48°39' W 123°27'0 0.0
2015-Jan-04 20:18N 48°39' W 123°27'0 0.0
2015-Jan-04 19:30N 48°39' W 123°27'0 0.0
2015-Jan-04 18:24N 48°39' W 123°27'0 0.0
2015-Jan-04 16:24N 48°39' W 123°27'0 0.0
2015-Jan-04 15:24N 48°39' W 123°27'0 0.0
2015-Jan-04 14:24N 48°39' W 123°27'0 0.0
2015-Jan-04 13:12N 48°39' W 123°27'0 0.0
2015-Jan-04 12:18N 48°39' W 123°27'0 0.0
2015-Jan-04 10:24N 48°39' W 123°27'0 0.0
2015-Jan-04 06:24N 48°39' W 123°27'0 0.0
2015-Jan-04 05:12N 48°39' W 123°27'0 0.0
2015-Jan-04 04:04N 48°39' W 123°27'0 0.0
2015-Jan-04 02:30N 48°39' W 123°27'0 0.0
2015-Jan-04 00:18N 48°39' W 123°27'0 0.0
2015-Jan-03 22:30N 48°39' W 123°27'0 0.0
2015-Jan-03 19:18N 48°39' W 123°27'0 0.0
2015-Jan-03 18:30N 48°39' W 123°27'0 0.0
2015-Jan-03 17:18N 48°39' W 123°27'  
Track history (hours):
 
Tides and Currents Weather Stations Pressure Air Temp Water Temp Dewpoint Dewpoint Depression Visibility Wind Speed Wind Dir Waves Ship Positions

Arrow Post

Last reported at 2015-Jan-13 15:30 UTC. Time now 2015-Jan-25 16:24 UTC.
Position N 51°32' W 127°56'.
Warning: this ship's position is 12 days out of date.

Length 29 m; draft 3.5 m.

Type: SAR. MMSI: 316001090.

Date/timePositionNaut miles runAvg speedWind from/ knotsBaromVisibWave heightAir tempDewpointWater temp
2015-Jan-13 15:30N 51°32' W 127°56'0 0.0
2015-Jan-13 14:06N 51°32' W 127°56'0 0.0
2015-Jan-13 13:06N 51°32' W 127°56'0 0.0
2015-Jan-13 12:12N 51°32' W 127°56'0 0.0
2015-Jan-13 10:18N 51°32' W 127°56'0 0.0
2015-Jan-13 08:12N 51°32' W 127°56'0 0.0
2015-Jan-13 07:30N 51°32' W 127°56'0 0.0
2015-Jan-13 06:30N 51°32' W 127°56'0 0.0
2015-Jan-13 05:12N 51°32' W 127°56'0 0.0
2015-Jan-13 04:18N 51°32' W 127°56'2 1.8
2015-Jan-13 03:25N 51°31' W 127°53'23 9.8
2015-Jan-13 01:06N 51°09' W 127°49'611.0
2015-Jan-13 00:33N 51°04' W 127°42'1110.7
2015-Jan-12 23:33N 50°57' W 127°29'1010.2
2015-Jan-12 22:33N 50°52' W 127°15'1010.5
2015-Jan-12 21:33N 50°46' W 127°02'1110.6
2015-Jan-12 20:31N 50°39' W 126°48'1211.1
2015-Jan-12 19:24N 50°30' W 126°34'113 4.4
2015-Jan-11 17:28N 49°22' W 124°14'9 9.8
2015-Jan-11 16:33N 49°17' W 124°02'9 8.7
2015-Jan-11 15:33N 49°10' W 123°55'1 0.6
2015-Jan-11 14:05N 49°10' W 123°56'0 0.0
2015-Jan-11 13:10N 49°10' W 123°56'0 0.0
2015-Jan-11 12:28N 49°10' W 123°56'0 0.0
2015-Jan-11 11:17N 49°10' W 123°56'0 0.0
2015-Jan-11 09:22N 49°10' W 123°56'0 0.0
2015-Jan-11 08:20N 49°10' W 123°56'0 0.0
2015-Jan-11 06:16N 49°10' W 123°56'0 0.0
2015-Jan-11 03:22N 49°10' W 123°56'0 0.0
2015-Jan-11 02:28N 49°10' W 123°56'0 0.0
2015-Jan-11 01:31N 49°10' W 123°56'6 6.0
2015-Jan-11 00:33N 49°12' W 123°48'5 4.8
2015-Jan-10 23:33N 49°10' W 123°41'7 6.6
2015-Jan-10 22:33N 49°05' W 123°36'8 7.7
2015-Jan-10 21:28N 48°56' W 123°37'8 8.5
2015-Jan-10 20:32N 48°49' W 123°34'7 6.9
2015-Jan-10 19:31N 48°42' W 123°30'1 0.7
2015-Jan-10 18:32N 48°41' W 123°30'2 1.8
2015-Jan-10 17:33N 48°40' W 123°30'2 1.2
2015-Jan-10 16:06N 48°39' W 123°27'0 0.0
2015-Jan-10 15:18N 48°39' W 123°27'0 0.0
2015-Jan-10 13:18N 48°39' W 123°27'0 0.0
2015-Jan-10 12:30N 48°39' W 123°27'0 0.0
2015-Jan-10 09:12N 48°39' W 123°27'0 0.0
2015-Jan-10 08:30N 48°39' W 123°27'0 0.0
2015-Jan-10 06:24N 48°39' W 123°27'0 0.0
2015-Jan-10 05:30N 48°39' W 123°27'0 0.0
2015-Jan-10 02:24N 48°39' W 123°27'0 0.0
2015-Jan-10 01:24N 48°39' W 123°27'0 0.0
2015-Jan-10 00:18N 48°39' W 123°27'0 0.0
2015-Jan-09 23:24N 48°39' W 123°27'0 0.0
2015-Jan-09 22:12N 48°39' W 123°27'0 0.0
2015-Jan-09 21:30N 48°39' W 123°27'0 0.0
2015-Jan-09 20:24N 48°39' W 123°27'0 0.0
2015-Jan-09 18:24N 48°39' W 123°27'0 0.0
2015-Jan-09 17:24N 48°39' W 123°27'0 0.0
2015-Jan-09 16:30N 48°39' W 123°27'0 0.0
2015-Jan-09 15:30N 48°39' W 123°27'0 0.0
2015-Jan-09 14:30N 48°39' W 123°27'0 0.0
2015-Jan-09 13:12N 48°39' W 123°27'0 0.0
2015-Jan-09 11:24N 48°39' W 123°27'0 0.0
2015-Jan-09 10:24N 48°39' W 123°27'0 0.0
2015-Jan-09 09:30N 48°39' W 123°27'0 0.0
2015-Jan-09 08:30N 48°39' W 123°27'0 0.0
2015-Jan-09 06:18N 48°39' W 123°27'0 0.0
2015-Jan-09 05:12N 48°39' W 123°27'0 0.0
2015-Jan-09 04:30N 48°39' W 123°27'0 0.0
2015-Jan-09 03:12N 48°39' W 123°27'0 0.0
2015-Jan-09 02:12N 48°39' W 123°27'0 0.0
2015-Jan-09 01:24N 48°39' W 123°27'0 0.0
2015-Jan-09 00:30N 48°39' W 123°27'0 0.0
2015-Jan-08 22:30N 48°39' W 123°27'0 0.0
2015-Jan-08 20:30N 48°39' W 123°27'0 0.0
2015-Jan-08 19:30N 48°39' W 123°27'0 0.0
2015-Jan-08 16:30N 48°39' W 123°27'0 0.0
2015-Jan-08 15:06N 48°39' W 123°27'0 0.0
2015-Jan-08 07:18N 48°39' W 123°27'0 0.0
2015-Jan-08 06:18N 48°39' W 123°27'0 0.0
2015-Jan-08 05:30N 48°39' W 123°27'0 0.0
2015-Jan-08 04:24N 48°39' W 123°27'0 0.0
2015-Jan-08 03:12N 48°39' W 123°27'0 0.0
2015-Jan-07 20:18N 48°39' W 123°27'0 0.0
2015-Jan-07 19:30N 48°39' W 123°27'0 0.0
2015-Jan-07 18:13N 48°39' W 123°27'0 0.0
2015-Jan-07 16:30N 48°39' W 123°27'0 0.0
2015-Jan-07 14:10N 48°39' W 123°27'0 0.0
2015-Jan-07 11:22N 48°39' W 123°27'0 0.0
2015-Jan-07 07:12N 48°39' W 123°27'0 0.0
2015-Jan-07 06:18N 48°39' W 123°27'0 0.0
2015-Jan-07 04:12N 48°39' W 123°27'0 0.0
2015-Jan-07 01:30N 48°39' W 123°27'0 0.0
2015-Jan-07 00:24N 48°39' W 123°27'0 0.0
2015-Jan-06 23:12N 48°39' W 123°27'0 0.0
2015-Jan-06 21:12N 48°39' W 123°27'0 0.0
2015-Jan-06 18:06N 48°39' W 123°27'0 0.0
2015-Jan-06 17:24N 48°39' W 123°27'0 0.0
2015-Jan-06 16:24N 48°39' W 123°27'0 0.0
2015-Jan-06 15:25N 48°39' W 123°27'0 0.0
2015-Jan-06 14:18N 48°39' W 123°27'0 0.0
2015-Jan-06 12:18N 48°39' W 123°27'0 0.0
2015-Jan-06 11:24N 48°39' W 123°27'0 0.0
2015-Jan-06 10:24N 48°39' W 123°27'0 0.0
2015-Jan-06 09:18N 48°39' W 123°27'0 0.0
2015-Jan-06 05:22N 48°39' W 123°27'0 0.0
2015-Jan-06 04:12N 48°39' W 123°27'0 0.0
2015-Jan-06 03:18N 48°39' W 123°27'0 0.0
2015-Jan-05 23:24N 48°39' W 123°27'0 0.0
2015-Jan-05 22:25N 48°39' W 123°27'0 0.0
2015-Jan-05 21:18N 48°39' W 123°27'0 0.0
2015-Jan-05 20:30N 48°39' W 123°27'0 0.0
2015-Jan-05 18:30N 48°39' W 123°27'0 0.0
2015-Jan-05 17:31N 48°39' W 123°27'0 0.0
2015-Jan-05 16:25N 48°39' W 123°27'0 0.0
2015-Jan-05 15:31N 48°39' W 123°27'0 0.0
2015-Jan-05 14:24N 48°39' W 123°27'0 0.0
2015-Jan-05 13:25N 48°39' W 123°27'0 0.0
2015-Jan-05 11:12N 48°39' W 123°27'0 0.0
2015-Jan-05 01:30N 48°39' W 123°27'0 0.0
2015-Jan-04 20:18N 48°39' W 123°27'0 0.0
2015-Jan-04 19:30N 48°39' W 123°27'0 0.0
2015-Jan-04 18:24N 48°39' W 123°27'0 0.0
2015-Jan-04 16:24N 48°39' W 123°27'0 0.0
2015-Jan-04 15:24N 48°39' W 123°27'0 0.0
2015-Jan-04 14:24N 48°39' W 123°27'0 0.0
2015-Jan-04 13:12N 48°39' W 123°27'0 0.0
2015-Jan-04 12:18N 48°39' W 123°27'0 0.0
2015-Jan-04 10:24N 48°39' W 123°27'0 0.0
2015-Jan-04 06:24N 48°39' W 123°27'0 0.0
2015-Jan-04 05:12N 48°39' W 123°27'0 0.0
2015-Jan-04 04:04N 48°39' W 123°27'0 0.0
2015-Jan-04 02:30N 48°39' W 123°27'0 0.0
2015-Jan-04 00:18N 48°39' W 123°27'0 0.0
2015-Jan-03 22:30N 48°39' W 123°27'0 0.0
2015-Jan-03 19:18N 48°39' W 123°27'0 0.0
2015-Jan-03 18:30N 48°39' W 123°27'0 0.0
2015-Jan-03 17:18N 48°39' W 123°27'  

Dump ship's entire track history